createdAt,value
2018-11-05T00:01:36.441Z,20.48
2018-11-05T00:04:04.580Z,20.15
2018-11-05T00:06:32.718Z,20.52
2018-11-05T00:09:00.817Z,19.80
2018-11-05T00:11:29.088Z,19.10
2018-11-05T00:13:57.164Z,19.30
2018-11-05T00:16:25.290Z,19.62
2018-11-05T00:18:53.400Z,19.45
2018-11-05T00:21:21.479Z,20.25
2018-11-05T00:23:49.545Z,19.40
2018-11-05T00:26:17.758Z,19.02
2018-11-05T00:28:45.833Z,18.67
2018-11-05T00:31:14.050Z,17.80
2018-11-05T00:33:42.161Z,18.87
2018-11-05T00:36:10.312Z,17.98
2018-11-05T00:38:38.369Z,18.15
2018-11-05T00:41:06.519Z,17.70
2018-11-05T00:43:34.593Z,17.98
2018-11-05T00:46:02.782Z,18.07
2018-11-05T00:48:30.880Z,17.98
2018-11-05T00:50:59.038Z,17.75
2018-11-05T00:53:27.130Z,18.55
2018-11-05T00:55:55.296Z,17.90
2018-11-05T00:58:23.429Z,18.57
2018-11-05T01:00:51.666Z,19.20
2018-11-05T01:03:19.742Z,19.15
2018-11-05T01:05:47.831Z,19.17
2018-11-05T01:08:15.884Z,20.10
2018-11-05T01:10:44.093Z,19.60
2018-11-05T01:13:12.152Z,19.00
2018-11-05T01:15:40.368Z,18.30
2018-11-05T01:18:08.424Z,19.65
2018-11-05T01:22:48.734Z,19.40
2018-11-05T01:25:16.833Z,19.45
2018-11-05T01:27:44.889Z,18.90
2018-11-05T01:30:13.685Z,19.02
2018-11-05T01:32:41.946Z,18.73
2018-11-05T01:35:11.577Z,19.90
2018-11-05T01:37:39.691Z,18.75
2018-11-05T01:40:09.306Z,19.17
2018-11-05T01:42:37.621Z,19.07
2018-11-05T01:45:07.047Z,19.07
2018-11-05T01:47:35.126Z,18.90
2018-11-05T01:50:03.300Z,18.97
2018-11-05T01:52:31.378Z,19.17
2018-11-05T01:54:59.486Z,18.57
2018-11-05T01:57:27.586Z,19.50
2018-11-05T01:59:55.687Z,19.32
2018-11-05T02:02:23.851Z,19.07
2018-11-05T02:04:52.036Z,19.00
2018-11-05T02:07:20.134Z,19.05
2018-11-05T02:09:48.249Z,18.25
2018-11-05T02:12:16.338Z,18.23
2018-11-05T02:14:44.430Z,18.73
2018-11-05T02:17:12.905Z,18.92
2018-11-05T02:19:41.439Z,19.50
2018-11-05T02:22:09.659Z,18.92
2018-11-05T02:24:37.746Z,19.70
2018-11-05T02:27:05.905Z,19.25
2018-11-05T02:29:34.151Z,18.82
2018-11-05T02:32:02.433Z,19.12
2018-11-05T02:34:30.602Z,19.10
2018-11-05T02:36:58.693Z,19.20
2018-11-05T02:39:26.836Z,18.73
2018-11-05T02:41:54.998Z,19.87
2018-11-05T02:44:23.254Z,19.80
2018-11-05T02:46:51.320Z,19.75
2018-11-05T02:49:19.531Z,20.35
2018-11-05T02:51:47.648Z,19.57
2018-11-05T02:54:15.710Z,19.70
2018-11-05T02:56:43.795Z,19.20
2018-11-05T02:59:11.875Z,19.23
2018-11-05T03:01:39.974Z,19.37
2018-11-05T03:04:08.068Z,19.20
2018-11-05T03:06:43.001Z,19.57
2018-11-05T03:09:12.449Z,19.80
2018-11-05T03:11:40.915Z,19.10
2018-11-05T03:14:09.184Z,19.02
2018-11-05T03:16:37.776Z,19.13
2018-11-05T03:19:06.161Z,20.65
2018-11-05T03:21:34.384Z,19.00
2018-11-05T03:24:02.541Z,20.30
2018-11-05T03:26:30.989Z,20.25
2018-11-05T03:28:59.101Z,19.98
2018-11-05T03:31:27.217Z,20.23
2018-11-05T03:33:55.451Z,19.50
2018-11-05T03:36:23.669Z,19.60
2018-11-05T03:38:51.850Z,19.73
2018-11-05T03:41:19.944Z,20.10
2018-11-05T03:43:48.048Z,19.83
2018-11-05T03:46:16.137Z,20.43
2018-11-05T03:48:44.237Z,20.20
2018-11-05T03:51:12.329Z,19.67
2018-11-05T03:53:40.528Z,20.50
2018-11-05T03:56:08.650Z,21.13
2018-11-05T03:58:36.715Z,20.03
2018-11-05T04:01:04.829Z,20.07
2018-11-05T04:03:33.091Z,19.63
2018-11-05T04:06:01.149Z,20.02
2018-11-05T04:08:29.437Z,20.60
2018-11-05T04:10:57.552Z,19.80
2018-11-05T04:13:25.657Z,20.55
2018-11-05T04:15:53.812Z,20.10
2018-11-05T04:18:21.932Z,21.52
2018-11-05T04:20:50.109Z,22.40
2018-11-05T04:23:18.365Z,21.07
2018-11-05T04:25:46.471Z,21.12
2018-11-05T04:29:41.235Z,19.95
2018-11-05T04:32:09.437Z,19.57
2018-11-05T04:34:37.528Z,20.68
2018-11-05T04:37:05.804Z,20.82
2018-11-05T04:39:33.920Z,21.27
2018-11-05T04:42:02.050Z,20.02
2018-11-05T04:44:30.312Z,20.00
2018-11-05T04:46:58.418Z,20.27
2018-11-05T04:49:26.701Z,20.20
2018-11-05T04:51:54.833Z,22.48
2018-11-05T04:54:22.916Z,18.85
2018-11-05T04:56:51.038Z,20.10
2018-11-05T04:59:19.245Z,19.65
2018-11-05T05:01:47.350Z,19.67
2018-11-05T05:04:15.565Z,20.82
2018-11-05T05:06:43.885Z,19.23
2018-11-05T05:09:12.913Z,18.85
2018-11-05T05:11:41.400Z,20.70
2018-11-05T05:14:09.708Z,20.53
2018-11-05T05:16:38.426Z,20.70
2018-11-05T05:19:06.532Z,21.60
2018-11-05T05:21:36.007Z,20.37
2018-11-05T05:24:04.153Z,20.57
2018-11-05T05:26:32.373Z,22.00
2018-11-05T05:29:00.476Z,20.88
2018-11-05T05:31:28.770Z,20.68
2018-11-05T05:33:56.895Z,22.25
2018-11-05T05:36:24.988Z,20.68
2018-11-05T05:38:53.085Z,21.50
2018-11-05T05:41:21.341Z,21.95
2018-11-05T05:43:49.444Z,23.05
2018-11-05T05:46:17.638Z,22.27
2018-11-05T05:48:45.745Z,22.83
2018-11-05T05:51:14.108Z,23.43
2018-11-05T05:53:42.290Z,21.75
2018-11-05T05:56:10.390Z,23.10
2018-11-05T05:58:38.548Z,21.65
2018-11-05T06:01:06.628Z,21.70
2018-11-05T06:03:34.838Z,22.67
2018-11-05T06:06:02.966Z,22.62
2018-11-05T06:08:31.121Z,22.17
2018-11-05T06:10:59.273Z,22.87
2018-11-05T06:13:27.533Z,22.05
2018-11-05T06:15:55.727Z,23.42
2018-11-05T06:18:23.748Z,23.13
2018-11-05T06:20:51.853Z,23.57
2018-11-05T06:23:20.151Z,22.10
2018-11-05T06:25:48.232Z,21.48
2018-11-05T06:28:16.468Z,21.27
2018-11-05T06:30:44.577Z,24.40
2018-11-05T06:33:12.745Z,22.17
2018-11-05T06:35:40.873Z,21.55
2018-11-05T06:38:09.226Z,22.30
2018-11-05T06:40:37.342Z,20.25
2018-11-05T06:43:05.831Z,26.80
2018-11-05T06:45:34.015Z,23.62
2018-11-05T06:48:02.046Z,23.07
2018-11-05T06:50:30.150Z,23.45
2018-11-05T06:52:58.353Z,23.42
2018-11-05T06:55:26.335Z,22.07
2018-11-05T06:57:54.673Z,24.37
2018-11-05T07:00:23.909Z,25.08
2018-11-05T07:02:52.068Z,26.77
2018-11-05T07:05:20.309Z,26.65
2018-11-05T07:07:48.469Z,25.10
2018-11-05T07:10:17.223Z,26.02
2018-11-05T07:12:45.625Z,24.87
2018-11-05T07:15:15.911Z,26.87
2018-11-05T07:17:45.008Z,25.30
2018-11-05T07:20:21.281Z,25.77
2018-11-05T07:22:50.173Z,23.87
2018-11-05T07:25:18.309Z,25.53
2018-11-05T07:27:46.610Z,26.30
2018-11-05T07:30:19.604Z,24.85
2018-11-05T07:32:48.614Z,26.30
2018-11-05T07:35:16.804Z,23.63
2018-11-05T07:37:44.943Z,28.07
2018-11-05T07:40:14.260Z,26.75
2018-11-05T07:42:42.420Z,26.52
2018-11-05T07:45:13.477Z,27.62
2018-11-05T07:47:42.693Z,27.62
2018-11-05T07:50:12.270Z,30.32
2018-11-05T07:52:40.360Z,28.47
2018-11-05T07:55:10.256Z,28.80
2018-11-05T07:57:39.201Z,27.82
2018-11-05T08:00:15.898Z,27.48
2018-11-05T08:02:44.775Z,28.12
2018-11-05T08:05:13.376Z,25.50
2018-11-05T08:07:41.549Z,27.90
2018-11-05T08:10:10.125Z,28.20
2018-11-05T08:12:38.845Z,29.25
2018-11-05T08:15:08.212Z,30.82
2018-11-05T08:17:36.341Z,28.83
2018-11-05T08:20:04.720Z,29.98
2018-11-05T08:22:32.860Z,29.93
2018-11-05T08:25:01.060Z,30.00
2018-11-05T08:27:29.186Z,31.12
2018-11-05T08:29:57.301Z,32.20
2018-11-05T08:32:25.425Z,29.00
2018-11-05T08:34:53.593Z,31.07
2018-11-05T08:37:21.696Z,28.52
2018-11-05T08:39:49.846Z,30.23
2018-11-05T08:42:17.952Z,29.27
2018-11-05T08:44:46.081Z,28.60
2018-11-05T08:47:14.296Z,30.68
2018-11-05T08:49:42.417Z,31.07
2018-11-05T08:52:10.870Z,32.10
2018-11-05T08:54:39.245Z,31.73
2018-11-05T08:57:07.421Z,31.73
2018-11-05T08:59:35.557Z,31.50
2018-11-05T09:02:03.735Z,34.43
2018-11-05T09:04:31.912Z,33.10
2018-11-05T09:07:00.098Z,32.37
2018-11-05T09:09:28.233Z,32.30
2018-11-05T09:11:56.391Z,31.65
2018-11-05T09:14:24.457Z,33.10
2018-11-05T09:16:52.760Z,34.93
2018-11-05T09:19:20.964Z,30.43
2018-11-05T09:21:49.146Z,31.07
2018-11-05T09:24:17.306Z,33.60
2018-11-05T09:26:45.404Z,31.23
2018-11-05T09:29:13.532Z,31.52
2018-11-05T09:31:41.633Z,34.75
2018-11-05T09:34:09.763Z,35.15
2018-11-05T09:36:37.914Z,34.08
2018-11-05T09:39:07.226Z,36.17
2018-11-05T09:41:35.355Z,37.90
2018-11-05T09:44:03.646Z,37.42
2018-11-05T09:46:31.759Z,34.58
2018-11-05T09:48:59.946Z,35.48
2018-11-05T09:51:28.078Z,36.30
2018-11-05T09:53:56.174Z,33.78
2018-11-05T09:56:24.343Z,35.48
2018-11-05T09:58:52.438Z,38.45
2018-11-05T10:01:20.550Z,33.23
2018-11-05T10:03:57.550Z,34.40
2018-11-05T10:06:26.496Z,34.73
2018-11-05T10:08:54.637Z,33.00
2018-11-05T10:11:22.785Z,32.50
2018-11-05T10:13:50.910Z,34.20
2018-11-05T10:16:19.085Z,33.10
2018-11-05T10:18:47.205Z,34.35
2018-11-05T10:21:15.473Z,31.33
2018-11-05T10:23:43.671Z,34.15
2018-11-05T10:26:11.951Z,33.05
2018-11-05T10:28:40.069Z,35.50
2018-11-05T10:31:08.205Z,33.42
2018-11-05T10:33:36.460Z,33.80
2018-11-05T10:36:04.619Z,35.35
2018-11-05T10:38:32.889Z,31.75
2018-11-05T10:41:01.253Z,36.27
2018-11-05T10:43:29.371Z,38.28
2018-11-05T10:45:57.562Z,30.92
2018-11-05T10:48:25.735Z,33.93
2018-11-05T10:50:53.974Z,28.60
2018-11-05T10:53:22.277Z,30.80
2018-11-05T10:55:50.364Z,32.35
2018-11-05T10:58:18.644Z,31.00
2018-11-05T11:00:52.199Z,28.20
2018-11-05T11:03:20.622Z,30.88
2018-11-05T11:05:48.885Z,29.23
2018-11-05T11:08:17.045Z,30.75
2018-11-05T11:10:45.197Z,28.73
2018-11-05T11:13:13.465Z,30.37
2018-11-05T11:15:41.587Z,29.48
2018-11-05T11:18:09.780Z,29.40
2018-11-05T11:20:37.948Z,30.32
2018-11-05T11:23:06.178Z,30.88
2018-11-05T11:25:34.302Z,30.68
2018-11-05T11:28:02.566Z,33.08
2018-11-05T11:30:30.593Z,31.65
2018-11-05T11:32:58.774Z,31.65
2018-11-05T11:35:26.906Z,31.62
2018-11-05T11:37:55.273Z,31.20
2018-11-05T11:40:26.871Z,31.68
2018-11-05T11:42:55.018Z,34.98
2018-11-05T11:45:23.742Z,32.08
2018-11-05T11:47:51.949Z,28.70
2018-11-05T11:50:20.368Z,31.93
2018-11-05T11:52:48.886Z,32.15
2018-11-05T11:55:18.157Z,32.30
2018-11-05T11:57:46.910Z,32.45
2018-11-05T12:00:17.119Z,31.55
2018-11-05T12:02:45.823Z,30.57
2018-11-05T12:05:14.468Z,32.60
2018-11-05T12:07:42.517Z,31.73
2018-11-05T12:10:13.632Z,32.23
2018-11-05T12:12:41.849Z,30.75
2018-11-05T12:15:10.986Z,32.13
2018-11-05T12:17:39.873Z,31.35
2018-11-05T12:20:10.212Z,29.25
2018-11-05T12:22:38.378Z,33.17
2018-11-05T12:25:06.691Z,32.47
2018-11-05T12:27:34.873Z,30.67
2018-11-05T12:30:03.092Z,29.00
2018-11-05T12:32:31.376Z,31.20
2018-11-05T12:34:59.514Z,31.07
2018-11-05T12:37:27.621Z,31.43
2018-11-05T12:39:55.733Z,29.27
2018-11-05T12:42:23.973Z,29.75
2018-11-05T12:44:52.149Z,30.13
2018-11-05T12:47:20.220Z,30.45
2018-11-05T12:49:48.404Z,31.75
2018-11-05T12:52:16.576Z,29.52
2018-11-05T12:54:44.744Z,29.20
2018-11-05T12:57:12.866Z,30.77
2018-11-05T12:59:41.060Z,30.25
2018-11-05T13:02:09.197Z,31.97
2018-11-05T13:04:37.309Z,29.92
2018-11-05T13:07:05.578Z,32.03
2018-11-05T13:09:33.684Z,28.95
2018-11-05T13:12:01.945Z,27.73
2018-11-05T13:14:30.084Z,27.77
2018-11-05T13:16:58.288Z,29.35
2018-11-05T13:19:26.420Z,26.40
2018-11-05T13:21:54.547Z,27.52
2018-11-05T13:24:22.653Z,29.67
2018-11-05T13:26:50.774Z,31.42
2018-11-05T13:29:18.873Z,30.92
2018-11-05T13:31:46.968Z,29.77
2018-11-05T13:34:15.216Z,34.67
2018-11-05T13:36:43.388Z,32.85
2018-11-05T13:39:11.512Z,30.80
2018-11-05T13:41:39.613Z,32.17
2018-11-05T13:44:07.899Z,29.87
2018-11-05T13:46:36.399Z,30.15
2018-11-05T13:49:06.458Z,32.37
2018-11-05T13:51:34.086Z,28.70
2018-11-05T13:54:02.384Z,33.00
2018-11-05T13:56:30.428Z,30.08
2018-11-05T13:58:58.561Z,33.55
2018-11-05T14:01:26.662Z,32.38
2018-11-05T14:03:54.797Z,32.13
2018-11-05T14:06:22.914Z,32.15
2018-11-05T14:08:51.092Z,28.83
2018-11-05T14:11:19.212Z,29.37
2018-11-05T14:13:47.403Z,32.58
2018-11-05T14:16:15.508Z,30.88
2018-11-05T14:18:43.662Z,32.05
2018-11-05T14:21:11.856Z,30.88
2018-11-05T14:23:40.098Z,28.52
2018-11-05T14:26:08.634Z,32.88
2018-11-05T14:28:37.081Z,29.07
2018-11-05T14:31:05.152Z,28.90
2018-11-05T14:33:33.252Z,29.77
2018-11-05T14:36:01.517Z,31.20
2018-11-05T14:38:29.651Z,28.32
2018-11-05T14:40:57.893Z,29.70
2018-11-05T14:43:26.004Z,29.20
2018-11-05T14:45:54.089Z,30.20
2018-11-05T14:48:22.212Z,30.70
2018-11-05T14:50:50.558Z,29.23
2018-11-05T14:53:18.485Z,29.13
2018-11-05T14:55:46.661Z,27.97
2018-11-05T14:58:14.769Z,27.97
2018-11-05T15:00:42.918Z,27.85
2018-11-05T15:03:11.097Z,32.83
2018-11-05T15:05:39.307Z,28.98
2018-11-05T15:08:07.405Z,27.77
2018-11-05T15:10:35.593Z,27.62
2018-11-05T15:13:03.761Z,30.23
2018-11-05T15:15:31.865Z,28.02
2018-11-05T15:18:00.028Z,27.37
2018-11-05T15:20:28.160Z,26.45
2018-11-05T15:22:56.212Z,26.07
2018-11-05T15:25:24.480Z,28.65
2018-11-05T15:27:52.578Z,28.95
2018-11-05T15:30:21.865Z,29.02
2018-11-05T15:32:50.073Z,29.02
2018-11-05T15:35:18.189Z,29.57
2018-11-05T15:37:46.482Z,28.73
2018-11-05T15:40:15.809Z,27.05
2018-11-05T15:42:43.968Z,27.77
2018-11-05T15:45:13.421Z,29.57
2018-11-05T15:47:42.103Z,30.48
2018-11-05T15:50:12.035Z,27.22
2018-11-05T15:52:40.538Z,29.60
2018-11-05T15:55:08.422Z,31.65
2018-11-05T15:57:37.369Z,30.40
2018-11-05T16:00:11.969Z,29.82
2018-11-05T16:02:40.153Z,27.37
2018-11-05T16:05:08.337Z,28.92
2018-11-05T16:07:36.555Z,30.08
2018-11-05T16:10:06.144Z,29.50
2018-11-05T16:12:34.832Z,29.67
2018-11-05T16:15:03.070Z,28.85
2018-11-05T16:17:31.145Z,31.48
2018-11-05T16:19:59.401Z,30.37
2018-11-05T16:22:27.546Z,32.93
2018-11-05T16:24:55.670Z,31.55
2018-11-05T16:27:23.810Z,30.90
2018-11-05T16:29:51.925Z,32.55
2018-11-05T16:32:20.045Z,32.88
2018-11-05T16:34:48.322Z,33.38
2018-11-05T16:37:16.422Z,34.50
2018-11-05T16:39:44.791Z,34.27
2018-11-05T16:42:12.749Z,30.48
2018-11-05T16:44:40.870Z,34.40
2018-11-05T16:47:08.940Z,33.60
2018-11-05T16:49:37.509Z,33.40
2018-11-05T16:52:06.129Z,32.67
2018-11-05T16:54:34.280Z,31.70
2018-11-05T16:57:02.434Z,32.38
2018-11-05T16:59:30.524Z,31.52
2018-11-05T17:01:59.113Z,32.67
2018-11-05T17:04:26.749Z,30.90
2018-11-05T17:06:54.861Z,31.50
2018-11-05T17:09:23.032Z,33.20
2018-11-05T17:11:51.169Z,33.20
2018-11-05T17:14:19.461Z,32.98
2018-11-05T17:16:47.702Z,35.98
2018-11-05T17:19:16.627Z,32.55
2018-11-05T17:21:44.688Z,31.82
2018-11-05T17:24:12.833Z,33.45
2018-11-05T17:26:40.916Z,35.10
2018-11-05T17:29:09.091Z,33.35
2018-11-05T17:31:37.321Z,31.87
2018-11-05T17:34:05.529Z,32.15
2018-11-05T17:36:33.658Z,33.00
2018-11-05T17:39:02.012Z,34.50
2018-11-05T17:41:30.130Z,34.77
2018-11-05T17:43:58.503Z,34.53
2018-11-05T17:46:26.649Z,33.60
2018-11-05T17:48:54.915Z,34.83
2018-11-05T17:51:23.163Z,33.28
2018-11-05T17:53:51.290Z,37.33
2018-11-05T17:56:19.477Z,42.00
2018-11-05T17:58:47.628Z,38.98
2018-11-05T18:01:15.792Z,40.23
2018-11-05T18:03:44.058Z,41.13
2018-11-05T18:06:12.129Z,40.58
2018-11-05T18:08:40.276Z,37.85
2018-11-05T18:11:08.381Z,36.63
2018-11-05T18:13:36.643Z,42.27
2018-11-05T18:16:05.093Z,38.78
2018-11-05T18:18:33.616Z,40.07
2018-11-05T18:21:05.688Z,36.98
2018-11-05T18:23:34.310Z,37.70
2018-11-05T18:26:02.969Z,42.80
2018-11-05T18:28:31.133Z,41.15
2018-11-05T18:33:36.683Z,37.17
2018-11-05T18:36:04.962Z,41.92
2018-11-05T18:38:33.175Z,38.50
2018-11-05T18:41:01.376Z,40.52
2018-11-05T18:43:29.629Z,37.28
2018-11-05T18:45:57.984Z,37.58
2018-11-05T18:48:26.594Z,40.88
2018-11-05T18:50:54.817Z,47.20
2018-11-05T18:53:22.948Z,43.08
2018-11-05T18:55:51.082Z,44.83
2018-11-05T18:58:19.302Z,43.15
2018-11-05T19:00:47.443Z,42.33
2018-11-05T19:03:15.738Z,44.95
2018-11-05T19:05:43.827Z,39.83
2018-11-05T19:08:11.987Z,45.00
2018-11-05T19:10:40.120Z,47.98
2018-11-05T19:13:08.294Z,47.70
2018-11-05T19:15:36.457Z,48.87
2018-11-05T19:18:05.210Z,45.67
2018-11-05T19:20:33.325Z,45.10
2018-11-05T19:23:01.501Z,48.60
2018-11-05T19:25:29.590Z,49.27
2018-11-05T19:27:57.857Z,50.38
2018-11-05T19:30:27.217Z,53.02
2018-11-05T19:32:55.276Z,52.10
2018-11-05T19:35:23.380Z,53.17
2018-11-05T19:37:51.486Z,57.20
2018-11-05T19:40:20.106Z,55.90
2018-11-05T19:42:48.862Z,51.02
2018-11-05T19:45:18.265Z,54.20
2018-11-05T19:47:46.424Z,54.10
2018-11-05T19:50:16.957Z,53.60
2018-11-05T19:52:45.964Z,57.53
2018-11-05T19:55:15.208Z,52.93
2018-11-05T19:57:44.200Z,54.05
2018-11-05T20:00:18.457Z,53.48
2018-11-05T20:02:47.169Z,52.20
2018-11-05T20:05:15.747Z,49.25
2018-11-05T20:07:44.437Z,54.27
2018-11-05T20:10:13.061Z,52.57
2018-11-05T20:12:42.013Z,60.25
2018-11-05T20:15:10.285Z,63.55
2018-11-05T20:17:39.680Z,60.35
2018-11-05T20:20:09.497Z,55.30
2018-11-05T20:22:37.723Z,52.00
2018-11-05T20:25:06.868Z,51.77
2018-11-05T20:27:35.393Z,53.63
2018-11-05T20:30:03.527Z,53.45
2018-11-05T20:32:32.186Z,53.38
2018-11-05T20:34:59.988Z,53.02
2018-11-05T20:37:28.312Z,51.13
2018-11-05T20:39:56.644Z,49.88
2018-11-05T20:42:24.706Z,54.77
2018-11-05T20:44:52.798Z,51.08
2018-11-05T20:47:20.969Z,50.03
2018-11-05T20:49:49.077Z,49.85
2018-11-05T20:52:17.293Z,51.75
2018-11-05T20:54:45.772Z,47.60
2018-11-05T20:57:13.966Z,49.42
2018-11-05T20:59:42.094Z,50.33
2018-11-05T21:02:10.352Z,58.35
2018-11-05T21:04:38.481Z,56.75
2018-11-05T21:07:06.630Z,57.30
2018-11-05T21:09:35.257Z,54.23
2018-11-05T21:12:03.337Z,48.98
2018-11-05T21:14:31.694Z,48.90
2018-11-05T21:17:03.354Z,59.65
2018-11-05T21:19:31.660Z,54.90
2018-11-05T21:22:00.013Z,49.48
2018-11-05T21:24:27.976Z,50.95
2018-11-05T21:26:56.457Z,54.23
2018-11-05T21:29:25.877Z,65.83
2018-11-05T21:31:54.057Z,52.10
2018-11-05T21:34:22.156Z,50.15
2018-11-05T21:36:50.254Z,55.75
2018-11-05T21:39:18.358Z,50.28
2018-11-05T21:41:46.469Z,51.08
2018-11-05T21:44:14.573Z,49.65
2018-11-05T21:46:42.683Z,45.83
2018-11-05T21:49:11.001Z,52.27
2018-11-05T21:51:39.095Z,50.83
2018-11-05T21:54:07.227Z,47.15
2018-11-05T21:56:35.364Z,45.50
2018-11-05T21:59:03.539Z,47.73
2018-11-05T22:01:31.637Z,46.73
2018-11-05T22:03:59.790Z,45.43
2018-11-05T22:06:27.900Z,44.33
2018-11-05T22:08:56.012Z,44.73
2018-11-05T22:11:24.109Z,44.27
2018-11-05T22:13:52.268Z,45.80
2018-11-05T22:16:20.392Z,46.85
2018-11-05T22:18:48.562Z,46.80
2018-11-05T22:21:16.692Z,43.45
2018-11-05T22:23:44.841Z,47.78
2018-11-05T22:26:12.960Z,52.35
2018-11-05T22:28:41.216Z,48.37
2018-11-05T22:31:09.430Z,43.17
2018-11-05T22:33:37.682Z,47.73
2018-11-05T22:36:05.803Z,44.40
2018-11-05T22:38:33.927Z,46.60
2018-11-05T22:41:02.032Z,42.08
2018-11-05T22:43:30.219Z,42.25
2018-11-05T22:45:58.338Z,42.20
2018-11-05T22:48:26.604Z,42.90
2018-11-05T22:50:54.717Z,42.38
2018-11-05T22:53:22.845Z,44.27
2018-11-05T22:55:50.962Z,44.03
2018-11-05T22:58:19.130Z,51.18
2018-11-05T23:00:52.809Z,48.87
2018-11-05T23:03:26.201Z,47.45
2018-11-05T23:05:54.323Z,44.38
2018-11-05T23:08:22.534Z,51.10
2018-11-05T23:10:50.644Z,46.20
2018-11-05T23:13:18.770Z,49.65
2018-11-05T23:15:46.922Z,62.88
2018-11-05T23:18:15.175Z,64.50
2018-11-05T23:20:43.259Z,68.23
2018-11-05T23:23:11.440Z,85.50
2018-11-05T23:25:39.586Z,75.08
2018-11-05T23:28:07.963Z,94.15
2018-11-05T23:30:36.100Z,85.72
2018-11-05T23:33:04.417Z,82.05
2018-11-05T23:35:32.532Z,95.12
2018-11-05T23:38:00.696Z,80.60
2018-11-05T23:40:28.809Z,83.55
2018-11-05T23:42:56.924Z,79.05
2018-11-05T23:45:25.096Z,66.17
2018-11-05T23:47:53.305Z,58.80
2018-11-05T23:50:21.437Z,58.17
2018-11-05T23:52:49.580Z,71.00
2018-11-05T23:55:17.709Z,66.40
2018-11-05T23:57:45.832Z,104.35
